Las Vegas, Nevada
Traffic Map
Current Weather Conditions
Las Vegas, Nevada
Overcast
Overcast
59°
Feels Like: 59°
Wind Chill: 59° Ceiling: 11000
Heat Index: 59° Visibility: 10mi
Dew Point: 40° Wind: 7mph
Humidity: 49% Direction: 210° (SSW)
Pressure: 30.03in Gusts: 0mph
Raw Report DataKLAS 300456Z 21006KT 10SM OVC110 15/04 A3003 RMK AO2 SLP162 T01500044
Traffic Incident Summary
Active as of:
Severity:
Category:
InformationThere was an issue retrieving the traffic information for this location. Please try a different location or try again shortly.
Advertisements
Track Severe Weather on mobile